Time;durP1;ratioP1;P1;durP2;ratioP2;P2;SDS_P1;SDS_P2;PMS_P1;PMS_P2;Temp;Humidity;BMP_temperature;BMP_pressure;BME280_temperature;BME280_humidity;BME280_pressure;Samples;Min_cycle;Max_cycle;Signal;HPM_P1;HPM_P2
2022/11/09 00:02:13;;;;;;;2.33;1.63;;;;;;;11.91;90.00;100320.00;5008386;28;20181;-48
2022/11/09 00:04:39;;;;;;;4.30;1.20;;;;;;;11.91;90.21;100325.38;5008433;28;20192;-48
2022/11/09 00:07:04;;;;;;;2.85;1.45;;;;;;;11.93;90.49;100319.94;5009031;28;20196;-48
2022/11/09 00:09:30;;;;;;;2.33;1.80;;;;;;;11.95;90.53;100328.78;5009540;28;20656;-49
2022/11/09 00:11:55;;;;;;;3.60;1.67;;;;;;;11.93;90.58;100307.38;5009104;28;20223;-47
2022/11/09 00:14:21;;;;;;;2.00;1.50;;;;;;;11.85;90.77;100309.56;5007488;28;20604;-47
2022/11/09 00:16:46;;;;;;;4.97;1.70;;;;;;;11.85;90.96;100314.94;5009341;28;20223;-47
2022/11/09 00:19:12;;;;;;;6.35;1.92;;;;;;;11.92;90.74;100313.69;5009177;28;20188;-48
2022/11/09 00:21:38;;;;;;;3.00;1.58;;;;;;;11.92;90.99;100319.06;5009022;28;20180;-48
2022/11/09 00:24:04;;;;;;;3.53;1.60;;;;;;;11.97;91.02;100321.50;5007036;28;20489;-47
2022/11/09 00:26:30;;;;;;;1.80;1.40;;;;;;;11.94;91.11;100325.22;5006439;28;20212;-48
2022/11/09 00:28:56;;;;;;;3.38;1.70;;;;;;;12.01;91.07;100314.19;5009135;28;20821;-49
2022/11/09 00:31:23;;;;;;;3.03;1.35;;;;;;;11.92;91.13;100313.69;5009019;28;20657;-48
2022/11/09 00:33:54;;;;;;;5.63;1.88;;;;;;;12.04;91.29;100322.06;5007118;28;20216;-48
2022/11/09 00:36:21;;;;;;;4.95;1.80;;;;;;;12.03;91.16;100315.84;5008778;28;20200;-48
2022/11/09 00:38:52;;;;;;;2.38;1.35;;;;;;;12.01;91.25;100316.88;5006302;28;20181;-47
2022/11/09 00:41:19;;;;;;;1.77;1.65;;;;;;;12.15;91.16;100319.66;5006438;28;20636;-47
2022/11/09 00:43:45;;;;;;;4.63;2.00;;;;;;;12.09;91.14;100314.63;5007156;28;20184;-47
2022/11/09 00:46:11;;;;;;;4.00;1.58;;;;;;;12.09;91.09;100312.81;5007599;28;20548;-47
2022/11/09 00:48:37;;;;;;;3.65;1.92;;;;;;;12.15;91.06;100301.72;5008683;28;20199;-49
2022/11/09 00:51:03;;;;;;;4.85;1.80;;;;;;;12.13;91.16;100309.03;5007344;28;20658;-49
2022/11/09 00:53:29;;;;;;;3.05;1.48;;;;;;;12.08;91.47;100302.16;5007976;28;20376;-48
2022/11/09 00:55:56;;;;;;;4.60;1.67;;;;;;;12.08;91.64;100307.53;5009110;28;20204;-48
2022/11/09 00:58:22;;;;;;;7.45;2.00;;;;;;;12.09;91.66;100306.56;5007575;28;20207;-48
2022/11/09 01:00:48;;;;;;;5.57;2.13;;;;;;;12.14;91.64;100299.16;5008592;28;20185;-48
2022/11/09 01:03:13;;;;;;;3.65;1.75;;;;;;;12.15;91.93;100309.78;5008544;28;20219;-48
2022/11/09 01:05:41;;;;;;;3.35;1.58;;;;;;;12.19;91.77;100298.91;4996930;28;20669;-47
2022/11/09 01:08:06;;;;;;;4.82;1.70;;;;;;;12.15;91.81;100296.38;5008570;28;20256;-49
2022/11/09 01:10:32;;;;;;;1.58;1.48;;;;;;;12.12;92.05;100306.41;5007488;28;20192;-48
2022/11/09 01:12:58;;;;;;;4.47;1.70;;;;;;;12.10;92.37;100298.44;5008492;28;20203;-49
2022/11/09 01:15:24;;;;;;;5.82;1.63;;;;;;;12.09;92.10;100301.19;5009170;28;20201;-47
2022/11/09 01:17:49;;;;;;;4.03;1.80;;;;;;;12.08;92.47;100307.53;5007568;28;20188;-49
2022/11/09 01:20:16;;;;;;;6.55;1.77;;;;;;;12.04;92.79;100292.53;5009344;28;20181;-47
2022/11/09 01:22:42;;;;;;;2.28;1.58;;;;;;;12.11;92.78;100289.44;5012821;28;20654;-48
2022/11/09 01:25:08;;;;;;;4.35;1.90;;;;;;;12.13;92.63;100292.03;5011785;28;20229;-48
2022/11/09 01:27:34;;;;;;;4.50;1.60;;;;;;;12.07;92.87;100297.72;5005743;28;20240;-47
2022/11/09 01:29:59;;;;;;;4.63;1.90;;;;;;;12.11;93.15;100285.88;5012307;28;20223;-48
2022/11/09 01:32:25;;;;;;;3.35;1.65;;;;;;;12.02;93.03;100281.84;5011153;28;20196;-49
2022/11/09 01:34:50;;;;;;;3.67;1.50;;;;;;;11.93;93.23;100293.94;5011274;28;20569;-48
2022/11/09 01:37:16;;;;;;;2.30;1.52;;;;;;;11.89;93.71;100296.88;5012277;28;20192;-47
2022/11/09 01:39:41;;;;;;;3.25;1.80;;;;;;;11.87;94.25;100290.69;5012372;28;20795;-48
2022/11/09 01:42:07;;;;;;;2.38;1.50;;;;;;;11.82;94.25;100282.00;5011902;28;20181;-49
2022/11/09 01:44:36;;;;;;;3.75;1.58;;;;;;;11.73;94.55;100284.22;4992272;28;20196;-52
2022/11/09 01:47:13;;;;;;;5.32;1.90;;;;;;;11.72;94.82;100279.81;5009090;28;20185;-48
2022/11/09 01:49:51;;;;;;;4.72;1.85;;;;;;;11.77;95.11;100276.88;5011684;28;20240;-48
2022/11/09 01:52:25;;;;;;;3.63;1.70;;;;;;;11.70;95.08;100278.16;5011823;28;20195;-50
2022/11/09 01:54:57;;;;;;;5.28;2.35;;;;;;;11.67;95.37;100284.53;5009887;28;20230;-49
2022/11/09 01:57:35;;;;;;;3.63;1.50;;;;;;;11.58;95.50;100282.31;5011744;28;20204;-49
2022/11/09 02:00:09;;;;;;;4.80;1.67;;;;;;;11.53;96.02;100279.03;5010763;28;20218;-48
2022/11/09 02:02:49;;;;;;;3.45;1.65;;;;;;;11.49;96.15;100285.50;5011677;28;20179;-50
2022/11/09 02:05:20;;;;;;;3.85;2.13;;;;;;;11.51;96.53;100297.00;5009645;28;20580;-49
2022/11/09 02:07:49;;;;;;;2.42;1.45;;;;;;;11.44;96.99;100293.78;5010332;28;20181;-47
2022/11/09 02:10:17;;;;;;;4.40;1.90;;;;;;;11.52;96.85;100290.69;5011863;28;20231;-49
2022/11/09 02:12:44;;;;;;;4.47;1.88;;;;;;;11.47;96.90;100285.56;5012817;28;20289;-49
2022/11/09 02:15:11;;;;;;;3.53;1.88;;;;;;;11.45;97.20;100281.22;5009399;28;20208;-47
2022/11/09 02:17:37;;;;;;;1.88;1.65;;;;;;;11.50;97.29;100281.84;5010310;28;20192;-48
2022/11/09 02:20:11;;;;;;;4.50;1.70;;;;;;;11.43;97.38;100283.09;5010191;28;20180;-48
2022/11/09 02:22:37;;;;;;;3.92;2.00;;;;;;;11.44;97.57;100282.19;4993591;28;20272;-47
2022/11/09 02:25:04;;;;;;;4.38;1.85;;;;;;;11.42;97.77;100281.38;5011530;28;20278;-51
2022/11/09 02:27:30;;;;;;;4.57;1.77;;;;;;;11.43;97.53;100283.97;5004971;28;20253;-50
2022/11/09 02:29:57;;;;;;;5.40;2.00;;;;;;;11.47;97.71;100282.00;5009237;28;20267;-48
2022/11/09 02:32:28;;;;;;;3.47;1.85;;;;;;;11.44;97.89;100282.19;5004627;28;20170;-47
2022/11/09 02:34:56;;;;;;;2.90;1.70;;;;;;;11.41;97.79;100282.31;5001365;28;20232;-48
2022/11/09 02:37:31;;;;;;;2.65;1.75;;;;;;;11.45;97.96;100275.84;5011045;28;20276;-45
2022/11/09 02:40:00;;;;;;;3.88;1.83;;;;;;;11.40;98.13;100278.78;5011014;28;20277;-47
2022/11/09 02:42:25;;;;;;;2.92;1.60;;;;;;;11.50;98.15;100274.69;5010063;28;20195;-44
2022/11/09 02:44:57;;;;;;;3.70;1.95;;;;;;;11.46;98.18;100277.59;5007111;28;20208;-48
2022/11/09 02:47:22;;;;;;;2.63;1.52;;;;;;;11.45;98.04;100276.72;4993286;28;20220;-51
2022/11/09 02:49:49;;;;;;;4.20;1.73;;;;;;;11.39;98.35;100277.06;5010838;28;20250;-47
2022/11/09 02:52:15;;;;;;;3.60;1.77;;;;;;;11.39;98.53;100281.53;5017461;28;20192;-46
2022/11/09 02:54:42;;;;;;;3.85;1.60;;;;;;;11.48;98.59;100281.94;5008569;28;20649;-48
2022/11/09 02:57:08;;;;;;;2.92;1.80;;;;;;;11.46;98.50;100285.66;5010464;28;20192;-47
2022/11/09 02:59:34;;;;;;;5.45;1.92;;;;;;;11.46;98.71;100283.84;5010591;28;20208;-48
2022/11/09 03:02:02;;;;;;;4.63;1.73;;;;;;;11.38;98.78;100277.13;5004310;28;20185;-48
2022/11/09 03:04:29;;;;;;;3.42;1.98;;;;;;;11.32;98.85;100275.59;5009691;28;20190;-48
2022/11/09 03:06:54;;;;;;;5.22;1.58;;;;;;;11.34;99.12;100273.72;5008275;28;20176;-47
2022/11/09 03:09:20;;;;;;;4.78;1.83;;;;;;;11.35;99.22;100278.16;5008706;28;20611;-48
2022/11/09 03:11:46;;;;;;;5.72;2.08;;;;;;;11.41;99.16;100268.91;5009105;28;20176;-47
2022/11/09 03:14:13;;;;;;;3.45;1.52;;;;;;;11.43;99.13;100275.91;5008419;28;20375;-49
2022/11/09 03:16:45;;;;;;;4.95;1.83;;;;;;;11.41;99.32;100267.09;5008446;28;20259;-49
2022/11/09 03:19:13;;;;;;;3.72;1.73;;;;;;;11.30;99.31;100264.09;5010577;28;20181;-49
2022/11/09 03:21:39;;;;;;;4.63;2.08;;;;;;;11.29;99.58;100273.94;5006330;28;20268;-46
2022/11/09 03:24:05;;;;;;;4.40;1.75;;;;;;;11.34;100.00;100266.53;5009678;28;20228;-49
2022/11/09 03:26:31;;;;;;;2.85;1.60;;;;;;;11.35;99.84;100270.09;4992512;28;20208;-49
2022/11/09 03:28:57;;;;;;;2.20;1.73;;;;;;;11.41;99.89;100269.75;5010057;28;20256;-48
2022/11/09 03:31:22;;;;;;;5.93;1.88;;;;;;;11.41;99.83;100268.91;5007883;28;20211;-48
2022/11/09 03:33:50;;;;;;;2.00;1.40;;;;;;;11.39;99.77;100269.00;5008085;28;20628;-50
2022/11/09 03:36:15;;;;;;;4.07;1.98;;;;;;;11.36;100.00;100274.50;5010158;28;20212;-48
2022/11/09 03:38:41;;;;;;;2.72;1.80;;;;;;;11.44;100.00;100274.13;4998013;28;20243;-48
2022/11/09 03:41:06;;;;;;;4.25;1.92;;;;;;;11.43;100.00;100269.69;5008397;28;20685;-49
2022/11/09 03:43:34;;;;;;;4.47;1.90;;;;;;;11.41;100.00;100279.63;5003483;28;20200;-48
2022/11/09 03:45:59;;;;;;;2.17;1.50;;;;;;;11.44;100.00;100284.88;5009566;28;20197;-48
2022/11/09 03:48:25;;;;;;;2.35;2.05;;;;;;;11.51;100.00;100279.09;5009905;28;20192;-49
2022/11/09 03:50:50;;;;;;;2.65;1.70;;;;;;;11.49;100.00;100282.81;5009730;28;20185;-47
2022/11/09 03:53:16;;;;;;;2.20;1.67;;;;;;;11.55;100.00;100279.81;5008991;28;20454;-47
2022/11/09 03:55:41;;;;;;;1.75;1.60;;;;;;;11.49;100.00;100283.66;5008040;28;20584;-48
2022/11/09 03:58:10;;;;;;;3.92;1.70;;;;;;;11.50;100.00;100277.38;5009654;28;20646;-50
2022/11/09 04:00:35;;;;;;;2.55;1.92;;;;;;;11.51;100.00;100279.09;5009839;28;20180;-50
2022/11/09 04:03:01;;;;;;;3.65;1.77;;;;;;;11.49;100.00;100275.63;5008381;28;20711;-50
2022/11/09 04:05:27;;;;;;;2.22;1.50;;;;;;;11.47;100.00;100287.38;5009190;28;20424;-47
2022/11/09 04:07:55;;;;;;;2.95;1.90;;;;;;;11.45;100.00;100284.75;5008423;28;20176;-44
2022/11/09 04:10:22;;;;;;;3.42;1.70;;;;;;;11.47;100.00;100280.19;5007247;28;20178;-48
2022/11/09 04:12:48;;;;;;;1.90;1.70;;;;;;;11.45;100.00;100276.72;5006272;28;20223;-48
2022/11/09 04:15:14;;;;;;;6.68;1.92;;;;;;;11.47;100.00;100274.81;5008799;28;20193;-45
2022/11/09 04:17:40;;;;;;;3.47;1.75;;;;;;;11.50;100.00;100273.78;5009388;28;20275;-46
2022/11/09 04:20:07;;;;;;;8.57;2.00;;;;;;;11.58;100.00;100274.28;5009421;28;20263;-47
2022/11/09 04:22:33;;;;;;;4.40;1.67;;;;;;;11.54;100.00;100270.00;5009257;28;20168;-48
2022/11/09 04:24:59;;;;;;;4.40;1.88;;;;;;;11.57;100.00;100272.56;5008436;28;20299;-46
2022/11/09 04:27:24;;;;;;;7.55;1.92;;;;;;;11.59;100.00;100272.47;5008245;28;20279;-48
2022/11/09 04:29:50;;;;;;;3.53;1.80;;;;;;;11.57;100.00;100274.34;5009104;28;20577;-45
2022/11/09 04:32:15;;;;;;;4.57;1.90;;;;;;;11.56;100.00;100268.13;5008719;28;20188;-46
2022/11/09 04:34:41;;;;;;;3.35;1.77;;;;;;;11.60;100.00;100263.47;5006603;28;20184;-47
2022/11/09 04:37:07;;;;;;;3.90;1.77;;;;;;;11.60;100.00;100267.03;5008281;28;20652;-46
2022/11/09 04:39:33;;;;;;;2.97;1.90;;;;;;;11.62;100.00;100264.28;5008929;28;20625;-49
2022/11/09 04:41:58;;;;;;;3.75;1.85;;;;;;;11.55;100.00;100269.09;5005800;28;20264;-49
2022/11/09 04:44:28;;;;;;;4.82;2.10;;;;;;;11.60;100.00;100263.47;5005768;28;20192;-45
2022/11/09 04:46:53;;;;;;;3.10;1.80;;;;;;;11.57;100.00;100269.88;5007740;28;20278;-48
2022/11/09 04:49:18;;;;;;;5.25;2.00;;;;;;;11.60;100.00;100272.38;5009174;28;20737;-47
2022/11/09 04:51:44;;;;;;;3.65;1.80;;;;;;;11.51;100.00;100270.19;5012091;28;21219;-47
2022/11/09 04:54:09;;;;;;;4.70;2.30;;;;;;;11.47;100.00;100274.81;5012216;28;20720;-49
2022/11/09 04:56:35;;;;;;;5.68;2.10;;;;;;;11.42;100.00;100273.34;5012294;28;20298;-51
2022/11/09 04:59:00;;;;;;;5.28;1.75;;;;;;;11.50;100.00;100266.63;5012890;28;20262;-45
2022/11/09 05:01:26;;;;;;;4.35;1.80;;;;;;;11.44;100.00;100269.63;5012508;28;20699;-45
2022/11/09 05:03:51;;;;;;;4.50;1.90;;;;;;;11.40;100.00;100265.38;5012386;28;20282;-51
2022/11/09 05:06:32;;;;;;;3.97;1.88;;;;;;;11.40;100.00;100267.19;5012855;28;20208;-45
2022/11/09 05:09:03;;;;;;;5.80;1.95;;;;;;;11.34;100.00;100277.25;5010299;28;20246;-45
2022/11/09 05:11:29;;;;;;;6.10;1.70;;;;;;;11.25;100.00;100277.72;5011695;28;20191;-49
2022/11/09 05:13:54;;;;;;;4.78;2.20;;;;;;;11.22;100.00;100277.03;5011780;28;20199;-46
2022/11/09 05:16:20;;;;;;;3.95;1.58;;;;;;;11.23;100.00;100276.94;5010191;28;20980;-50
2022/11/09 05:18:46;;;;;;;3.70;1.90;;;;;;;11.22;100.00;100269.84;5011205;28;20184;-48
2022/11/09 05:21:11;;;;;;;4.15;1.75;;;;;;;11.22;100.00;100290.44;5012365;28;20188;-46
2022/11/09 05:26:21;;;;;;;5.70;2.17;;;;;;;11.21;100.00;100275.28;5010982;28;20258;-48
2022/11/09 05:28:46;;;;;;;4.80;2.20;;;;;;;11.21;100.00;100261.88;5010984;28;20640;-49
2022/11/09 05:31:12;;;;;;;4.20;2.10;;;;;;;11.18;100.00;100283.47;5011669;28;20644;-47
2022/11/09 05:33:38;;;;;;;2.97;1.88;;;;;;;11.21;100.00;100261.88;5011807;28;20196;-48
2022/11/09 05:36:03;;;;;;;3.55;1.98;;;;;;;11.17;100.00;100287.09;5012891;28;20218;-48
2022/11/09 05:38:29;;;;;;;3.63;1.90;;;;;;;11.17;100.00;100296.00;5012116;28;20173;-46
2022/11/09 05:40:54;;;;;;;5.55;1.83;;;;;;;11.17;100.00;100287.09;5012146;28;20183;-45
2022/11/09 05:43:20;;;;;;;2.85;1.80;;;;;;;11.23;100.00;100282.28;5009497;28;20325;-46
2022/11/09 05:45:46;;;;;;;5.07;2.25;;;;;;;11.24;100.00;100294.78;5012044;28;20231;-48
2022/11/09 05:48:14;;;;;;;3.35;1.77;;;;;;;11.24;100.00;100292.09;5011752;28;20212;-49
2022/11/09 05:50:41;;;;;;;5.68;2.40;;;;;;;11.36;100.00;100290.59;5011797;28;20207;-47
2022/11/09 05:53:36;;;;;;;4.03;2.00;;;;;;;11.44;100.00;100301.81;5011006;28;20236;-48
2022/11/09 05:56:08;;;;;;;3.85;2.10;;;;;;;11.41;100.00;100311.81;5008510;28;20290;-49
2022/11/09 05:58:37;;;;;;;4.72;1.80;;;;;;;11.46;100.00;100299.94;5011642;28;20184;-51
2022/11/09 06:01:13;;;;;;;4.10;1.88;;;;;;;11.48;100.00;100297.19;5008794;28;20199;-46
2022/11/09 06:03:40;;;;;;;5.93;1.90;;;;;;;11.47;100.00;100308.84;5010293;28;20261;-47
2022/11/09 06:06:06;;;;;;;6.30;2.22;;;;;;;11.40;100.00;100310.97;5010506;28;20304;-49
2022/11/09 06:08:32;;;;;;;4.28;2.10;;;;;;;11.38;100.00;100302.13;5011615;28;20223;-48
2022/11/09 06:11:01;;;;;;;4.00;1.67;;;;;;;11.37;100.00;100304.88;5011996;28;20188;-51
2022/11/09 06:13:27;;;;;;;4.20;1.88;;;;;;;11.29;100.00;100299.91;5010917;28;20200;-48
2022/11/09 06:15:58;;;;;;;7.18;2.08;;;;;;;11.40;100.00;100300.22;5013827;28;20227;-48
2022/11/09 06:18:25;;;;;;;6.68;1.83;;;;;;;11.38;100.00;100310.16;5011090;28;20769;-49
2022/11/09 06:20:56;;;;;;;8.07;2.10;;;;;;;11.45;100.00;100313.41;5011138;28;20668;-49
2022/11/09 06:23:25;;;;;;;4.35;2.10;;;;;;;11.42;100.00;100309.06;5010529;28;20271;-48
2022/11/09 06:26:05;;;;;;;5.25;2.00;;;;;;;11.47;100.00;100311.53;5009685;28;20204;-48
2022/11/09 06:28:32;;;;;;;4.65;2.03;;;;;;;11.40;100.00;100310.97;5011036;28;20263;-47
2022/11/09 06:30:59;;;;;;;6.50;2.33;;;;;;;11.39;100.00;100316.41;5022103;28;20191;-49
2022/11/09 06:33:25;;;;;;;2.17;1.90;;;;;;;11.41;100.00;100325.22;5010340;28;20192;-49
2022/11/09 06:35:50;;;;;;;5.28;1.90;;;;;;;11.41;100.00;100319.88;5011027;28;20211;-49
2022/11/09 06:38:16;;;;;;;5.22;1.75;;;;;;;11.42;100.00;100310.91;5010820;28;20814;-50
2022/11/09 06:40:42;;;;;;;6.25;1.98;;;;;;;11.40;100.00;100331.56;5010742;28;20185;-48
2022/11/09 06:43:08;;;;;;;5.53;2.25;;;;;;;11.36;100.00;100333.50;5011092;28;20611;-49
2022/11/09 06:45:34;;;;;;;3.85;1.92;;;;;;;11.38;100.00;100320.91;5009974;28;20216;-48
2022/11/09 06:48:02;;;;;;;4.43;2.08;;;;;;;11.42;100.00;100335.91;5009540;28;20275;-48
2022/11/09 06:50:30;;;;;;;6.82;2.10;;;;;;;11.45;100.00;100334.88;5009768;28;20181;-48
2022/11/09 06:53:01;;;;;;;7.35;2.30;;;;;;;11.45;100.00;100338.41;5010239;28;20216;-48
2022/11/09 06:55:27;;;;;;;4.70;2.28;;;;;;;11.47;100.00;100331.16;5009200;28;20208;-47
2022/11/09 06:57:54;;;;;;;3.50;1.90;;;;;;;11.48;100.00;100340.97;5009452;28;20196;-48
2022/11/09 07:00:20;;;;;;;5.10;2.13;;;;;;;11.53;100.00;100332.69;5010358;28;20169;-48
2022/11/09 07:02:45;;;;;;;7.50;2.30;;;;;;;11.54;100.00;100337.09;5010430;28;20592;-48
2022/11/09 07:05:11;;;;;;;4.93;2.05;;;;;;;11.62;100.00;100334.03;5010205;28;20278;-47
2022/11/09 07:07:36;;;;;;;6.05;1.90;;;;;;;11.65;100.00;100347.28;5007855;28;20223;-48
2022/11/09 07:10:02;;;;;;;3.42;2.05;;;;;;;11.69;100.00;100346.19;5009753;28;20263;-47
2022/11/09 07:12:28;;;;;;;4.63;1.92;;;;;;;11.69;100.00;100347.03;5007643;28;20197;-48
2022/11/09 07:14:53;;;;;;;6.60;2.25;;;;;;;11.72;100.00;100336.19;5008833;28;20592;-46
2022/11/09 07:17:19;;;;;;;2.58;1.67;;;;;;;11.73;100.00;100332.53;5009644;28;20181;-48
2022/11/09 07:19:45;;;;;;;6.07;2.17;;;;;;;11.73;100.00;100353.13;5009771;28;20189;-48
2022/11/09 07:22:10;;;;;;;3.92;1.73;;;;;;;11.72;100.00;100352.28;5009930;28;20580;-48
2022/11/09 07:24:35;;;;;;;5.18;2.20;;;;;;;11.68;100.00;100364.09;5009430;28;20196;-47
2022/11/09 07:27:01;;;;;;;3.42;2.15;;;;;;;11.62;100.00;100355.50;5009898;28;20268;-47
2022/11/09 07:29:26;;;;;;;6.50;2.10;;;;;;;11.65;100.00;100366.06;5009836;28;20169;-49
2022/11/09 07:31:52;;;;;;;7.80;2.08;;;;;;;11.65;100.00;100366.06;5009286;28;20242;-46
2022/11/09 07:34:17;;;;;;;4.15;1.95;;;;;;;11.60;100.00;100366.28;5007431;28;20205;-48
2022/11/09 07:36:43;;;;;;;6.25;2.17;;;;;;;11.62;100.00;100371.59;5009801;28;20914;-46
2022/11/09 07:39:08;;;;;;;5.05;2.13;;;;;;;11.64;100.00;100377.75;5009548;28;20211;-47
2022/11/09 07:41:34;;;;;;;8.73;2.00;;;;;;;11.63;100.00;100378.69;5010014;28;20189;-48
2022/11/09 07:43:59;;;;;;;5.75;2.00;;;;;;;11.66;nan;100376.72;5007825;28;20223;-47
2022/11/09 07:46:25;;;;;;;8.10;2.30;;;;;;;11.66;100.00;100386.59;5008266;28;20339;-47
2022/11/09 07:48:50;;;;;;;7.55;2.03;;;;;;;11.69;100.00;100386.44;5009403;28;20200;-47
2022/11/09 07:51:16;;;;;;;5.25;2.38;;;;;;;11.78;100.00;100369.88;5004386;28;20629;-48
2022/11/09 07:53:41;;;;;;;8.48;2.17;;;;;;;11.76;100.00;100361.03;5007314;28;20205;-47
2022/11/09 07:56:07;;;;;;;5.00;1.83;;;;;;;11.84;100.00;100374.06;5008672;28;20288;-46
2022/11/09 07:58:34;;;;;;;11.77;2.58;;;;;;;11.85;100.00;100382.06;5006759;28;20177;-47
2022/11/09 08:01:00;;;;;;;4.90;2.05;;;;;;;11.89;100.00;100388.16;5009642;28;20180;-46
2022/11/09 08:03:26;;;;;;;9.32;2.22;;;;;;;11.88;100.00;100381.06;5008812;28;20181;-48
2022/11/09 08:05:51;;;;;;;5.35;2.47;;;;;;;11.90;100.00;100382.72;5009475;28;20215;-48
2022/11/09 08:08:17;;;;;;;5.20;1.90;;;;;;;11.84;100.00;100380.31;5009482;28;20181;-49
2022/11/09 08:10:49;;;;;;;5.47;2.25;;;;;;;11.77;100.00;100384.25;5006863;28;20185;-50
2022/11/09 08:13:15;;;;;;;6.35;2.35;;;;;;;11.77;100.00;100394.13;5004012;28;20291;-47
2022/11/09 08:15:41;;;;;;;6.72;2.40;;;;;;;11.79;100.00;100374.31;5006854;28;20299;-49
2022/11/09 08:18:10;;;;;;;3.72;1.98;;;;;;;11.80;100.00;100394.81;5009339;28;20191;-48
2022/11/09 08:20:36;;;;;;;6.05;2.30;;;;;;;11.80;100.00;100383.22;5008554;28;20184;-48
2022/11/09 08:23:02;;;;;;;6.00;1.88;;;;;;;11.92;100.00;100391.56;5008079;28;20679;-49
2022/11/09 08:25:28;;;;;;;6.35;2.55;;;;;;;12.02;100.00;100383.03;5008573;28;20287;-46
2022/11/09 08:27:56;;;;;;;4.30;2.05;;;;;;;12.10;100.00;100376.31;5008620;28;20188;-48
2022/11/09 08:30:22;;;;;;;8.23;2.00;;;;;;;12.18;100.00;100383.97;5008146;28;20238;-48
2022/11/09 08:32:48;;;;;;;4.43;1.98;;;;;;;12.16;100.00;100386.75;5008153;28;20204;-50
2022/11/09 08:35:19;;;;;;;5.30;2.13;;;;;;;12.09;100.00;100384.44;5008010;28;20208;-48
2022/11/09 08:37:46;;;;;;;3.70;2.20;;;;;;;12.05;100.00;100382.88;4996781;28;20189;-47
2022/11/09 08:40:13;;;;;;;6.55;2.15;;;;;;;12.27;100.00;100382.63;5008386;28;20272;-48
2022/11/09 08:42:39;;;;;;;7.72;2.53;;;;;;;12.45;100.00;100384.34;5008122;28;20695;-48
2022/11/09 08:45:05;;;;;;;3.45;2.13;;;;;;;12.28;100.00;100390.59;5007732;28;20200;-48
2022/11/09 08:47:30;;;;;;;4.68;1.90;;;;;;;12.25;100.00;100396.13;5008588;28;20275;-48
2022/11/09 08:49:56;;;;;;;3.00;2.00;;;;;;;12.50;100.00;100381.41;5008663;28;20664;-50
2022/11/09 08:52:22;;;;;;;4.38;2.03;;;;;;;12.59;100.00;100380.91;5007001;28;20204;-49
2022/11/09 08:54:47;;;;;;;4.75;1.88;;;;;;;12.58;100.00;100371.13;5007304;28;20577;-47
2022/11/09 08:57:13;;;;;;;3.72;2.30;;;;;;;12.76;100.00;100369.25;5005484;28;20231;-49
2022/11/09 08:59:38;;;;;;;5.28;2.40;;;;;;;12.80;100.00;100378.03;5008029;28;20181;-48
2022/11/09 09:02:04;;;;;;;5.15;2.10;;;;;;;12.80;100.00;100375.34;5007583;28;20243;-49
2022/11/09 09:04:29;;;;;;;3.58;2.08;;;;;;;12.86;100.00;100385.75;5007601;28;20253;-47
2022/11/09 09:06:55;;;;;;;4.18;1.70;;;;;;;12.99;100.00;100387.66;5007720;28;20185;-48
2022/11/09 09:09:21;;;;;;;3.63;2.00;;;;;;;12.97;100.00;100377.97;5007490;28;20189;-48
2022/11/09 09:11:46;;;;;;;3.53;2.03;;;;;;;13.10;100.00;100388.91;5007804;28;20189;-47
2022/11/09 09:14:12;;;;;;;5.47;2.30;;;;;;;13.07;100.00;100383.69;5003583;28;20201;-47
2022/11/09 09:16:37;;;;;;;5.32;2.10;;;;;;;12.94;99.82;100383.50;5007785;28;20279;-47
2022/11/09 09:19:03;;;;;;;3.75;2.13;;;;;;;13.01;99.99;100389.41;5006481;28;20212;-47
2022/11/09 09:21:28;;;;;;;4.57;2.05;;;;;;;13.11;99.83;100391.50;5003343;28;20231;-48
2022/11/09 09:23:54;;;;;;;3.53;2.33;;;;;;;13.21;99.40;100399.94;5005418;28;20184;-48
2022/11/09 09:26:20;;;;;;;5.55;2.20;;;;;;;13.28;98.87;100403.13;5007494;28;20227;-45
2022/11/09 09:28:46;;;;;;;7.30;2.22;;;;;;;13.42;98.59;100400.56;5007668;28;20197;-48
2022/11/09 09:31:11;;;;;;;5.75;2.08;;;;;;;13.31;98.06;100393.09;5007620;28;20199;-49
2022/11/09 09:33:36;;;;;;;4.80;2.05;;;;;;;13.46;97.61;100391.34;5007103;28;20347;-46
2022/11/09 09:36:03;;;;;;;5.07;2.00;;;;;;;13.44;97.78;100395.94;5007065;28;20548;-48
2022/11/09 09:38:29;;;;;;;6.15;2.03;;;;;;;13.28;97.27;100414.78;5020041;28;20211;-48
2022/11/09 09:40:59;;;;;;;7.25;1.83;;;;;;;13.21;96.96;100410.69;5010961;28;20173;-45
2022/11/09 09:43:29;;;;;;;7.85;2.55;;;;;;;13.37;96.33;100408.03;5009797;28;20269;-47
2022/11/09 09:45:57;;;;;;;7.60;2.45;;;;;;;13.49;96.03;100410.03;5008946;28;20790;-46
2022/11/09 09:48:52;;;;;;;5.47;1.83;;;;;;;13.65;95.46;100406.47;5011076;28;20264;-47
2022/11/09 09:51:26;;;;;;;4.80;2.10;;;;;;;13.55;94.58;100401.59;5008778;28;20207;-48
2022/11/09 09:54:02;;;;;;;7.28;2.15;;;;;;;13.51;94.44;100415.31;5010234;28;20351;-48
2022/11/09 09:56:37;;;;;;;5.93;1.80;;;;;;;13.33;94.46;100411.84;5008175;28;20295;-47
2022/11/09 09:59:10;;;;;;;5.57;2.05;;;;;;;13.38;94.83;100407.94;5011397;28;20180;-47
2022/11/09 10:01:39;;;;;;;5.22;1.75;;;;;;;13.42;94.39;100407.75;5011638;28;20784;-47
2022/11/09 10:04:15;;;;;;;5.68;2.10;;;;;;;13.54;94.18;100402.56;5010904;28;20583;-47
2022/11/09 10:07:04;;;;;;;4.40;1.92;;;;;;;13.47;93.91;100417.31;5011760;28;20291;-47
2022/11/09 10:09:37;;;;;;;5.53;1.92;;;;;;;13.49;93.39;100411.84;5010071;28;20207;-49
2022/11/09 10:12:08;;;;;;;5.22;2.92;;;;;;;13.60;92.98;100414.81;5011918;28;20236;-48
2022/11/09 10:14:39;;;;;;;6.18;1.85;;;;;;;13.40;93.00;100415.91;5011125;28;20212;-47
2022/11/09 10:17:27;;;;;;;8.43;2.72;;;;;;;13.30;93.23;100414.72;5011483;28;20268;-47
2022/11/09 10:20:29;;;;;;;7.53;2.25;;;;;;;13.29;93.45;100413.81;5008814;28;20189;-49
2022/11/09 10:23:21;;;;;;;7.25;2.55;;;;;;;13.48;93.51;100416.34;5011090;28;20184;-47
2022/11/09 10:25:53;;;;;;;5.95;2.10;;;;;;;13.48;93.22;100413.66;5010375;28;20232;-47
2022/11/09 10:28:23;;;;;;;4.95;2.03;;;;;;;13.66;92.88;100422.50;5011279;28;20239;-47
2022/11/09 10:30:49;;;;;;;6.93;2.03;;;;;;;13.68;92.42;100419.72;5009075;28;20253;-47
2022/11/09 10:33:20;;;;;;;7.70;1.92;;;;;;;13.52;91.76;100414.38;5009221;28;20852;-47
2022/11/09 10:36:26;;;;;;;5.50;1.98;;;;;;;13.62;91.74;100417.38;5007686;28;20208;-49
2022/11/09 10:38:55;;;;;;;5.93;1.85;;;;;;;13.64;91.39;100426.25;4999016;28;20200;-48
2022/11/09 10:41:43;;;;;;;8.95;2.03;;;;;;;13.88;91.07;100419.44;5010534;28;20179;-48
2022/11/09 10:44:27;;;;;;;8.95;2.38;;;;;;;13.81;90.78;100426.13;5008140;28;20195;-47
2022/11/09 10:47:16;;;;;;;8.05;1.90;;;;;;;13.90;90.23;100419.34;5010054;28;20255;-47
2022/11/09 10:50:21;;;;;;;8.77;2.25;;;;;;;14.09;90.17;100416.44;5004613;28;20215;-47
2022/11/09 10:53:21;;;;;;;7.93;1.95;;;;;;;14.06;89.75;100416.59;5009343;28;20232;-46
2022/11/09 10:56:17;;;;;;;9.38;2.50;;;;;;;14.28;89.36;100425.16;5009009;28;20223;-48
2022/11/09 10:59:01;;;;;;;6.47;2.05;;;;;;;14.30;89.00;100427.75;5010513;28;20281;-47
2022/11/09 11:01:45;;;;;;;8.32;1.98;;;;;;;14.38;88.39;100418.22;5009093;28;20248;-47
2022/11/09 11:04:29;;;;;;;5.55;2.03;;;;;;;14.36;87.80;100409.38;5010059;28;20260;-47
2022/11/09 11:07:18;;;;;;;7.18;1.75;;;;;;;14.71;87.32;100421.69;5003909;28;20303;-46
2022/11/09 11:10:28;;;;;;;7.95;2.17;;;;;;;14.29;86.54;100415.25;5008511;28;20653;-47
2022/11/09 11:13:12;;;;;;;6.72;1.90;;;;;;;13.93;86.81;100422.75;5007291;28;20297;-46
2022/11/09 11:15:57;;;;;;;7.72;2.03;;;;;;;13.74;86.88;100427.47;5010037;28;20231;-47
2022/11/09 11:18:45;;;;;;;5.57;1.83;;;;;;;13.49;86.94;100431.56;5010214;28;20196;-46
2022/11/09 11:21:30;;;;;;;10.15;2.50;;;;;;;13.41;87.08;100428.44;5009961;28;20180;-47
2022/11/09 11:24:16;;;;;;;7.65;1.70;;;;;;;13.50;87.20;100437.81;5008721;28;20199;-47
2022/11/09 11:27:41;;;;;;;7.88;1.88;;;;;;;13.65;87.43;100433.38;5010379;28;20652;-47
2022/11/09 11:30:30;;;;;;;9.95;2.03;;;;;;;13.88;87.48;100424.81;4991591;28;20423;-47
2022/11/09 11:33:17;;;;;;;7.63;1.98;;;;;;;14.12;87.11;100424.34;5008205;28;20215;-46
2022/11/09 11:36:22;;;;;;;5.68;1.90;;;;;;;14.32;86.21;100418.63;5008839;28;20206;-48